sensor_id;sensor_type;location;lat;lon;timestamp;P1;durP1;ratioP1;P2;durP2;ratioP2
84025;SDS011;74110;45.660;25.582;2024-03-23T00:55:18;17.60;;;7.80;;
84025;SDS011;74110;45.660;25.582;2024-03-23T00:57:47;21.10;;;7.90;;
84025;SDS011;74110;45.660;25.582;2024-03-23T01:00:16;18.80;;;8.20;;
84025;SDS011;74110;45.660;25.582;2024-03-23T01:02:45;18.90;;;8.30;;
84025;SDS011;74110;45.660;25.582;2024-03-23T01:05:12;20.30;;;8.10;;
84025;SDS011;74110;45.660;25.582;2024-03-23T01:07:41;16.60;;;8.00;;
84025;SDS011;74110;45.660;25.582;2024-03-23T01:10:09;18.00;;;7.50;;
84025;SDS011;74110;45.660;25.582;2024-03-23T01:12:37;19.30;;;7.90;;
84025;SDS011;74110;45.660;25.582;2024-03-23T01:15:07;17.20;;;8.10;;
84025;SDS011;74110;45.660;25.582;2024-03-23T01:17:37;18.50;;;8.10;;
84025;SDS011;74110;45.660;25.582;2024-03-23T01:20:04;17.10;;;7.10;;
84025;SDS011;74110;45.660;25.582;2024-03-23T01:22:34;16.40;;;7.20;;
84025;SDS011;74110;45.660;25.582;2024-03-23T01:25:02;15.30;;;6.60;;
84025;SDS011;74110;45.660;25.582;2024-03-23T01:27:31;23.40;;;9.10;;
84025;SDS011;74110;45.660;25.582;2024-03-23T01:30:00;16.70;;;8.70;;
84025;SDS011;74110;45.660;25.582;2024-03-23T01:32:30;20.20;;;8.30;;
84025;SDS011;74110;45.660;25.582;2024-03-23T01:34:58;27.20;;;9.80;;
84025;SDS011;74110;45.660;25.582;2024-03-23T01:37:27;20.90;;;8.10;;
84025;SDS011;74110;45.660;25.582;2024-03-23T01:39:55;24.30;;;9.60;;
84025;SDS011;74110;45.660;25.582;2024-03-23T01:42:24;24.40;;;9.60;;
84025;SDS011;74110;45.660;25.582;2024-03-23T01:44:52;24.10;;;8.90;;
84025;SDS011;74110;45.660;25.582;2024-03-23T01:47:22;22.80;;;8.80;;
84025;SDS011;74110;45.660;25.582;2024-03-23T01:52:19;18.80;;;8.40;;
84025;SDS011;74110;45.660;25.582;2024-03-23T01:54:47;20.80;;;8.80;;
84025;SDS011;74110;45.660;25.582;2024-03-23T01:57:15;22.70;;;9.30;;
84025;SDS011;74110;45.660;25.582;2024-03-23T01:59:43;24.80;;;9.80;;
84025;SDS011;74110;45.660;25.582;2024-03-23T02:02:11;21.30;;;9.80;;
84025;SDS011;74110;45.660;25.582;2024-03-23T02:04:39;23.90;;;9.70;;
84025;SDS011;74110;45.660;25.582;2024-03-23T02:07:08;22.60;;;9.50;;
84025;SDS011;74110;45.660;25.582;2024-03-23T02:09:36;22.70;;;8.90;;
84025;SDS011;74110;45.660;25.582;2024-03-23T02:12:06;19.20;;;8.30;;
84025;SDS011;74110;45.660;25.582;2024-03-23T02:14:35;20.90;;;9.40;;
84025;SDS011;74110;45.660;25.582;2024-03-23T02:17:03;19.40;;;8.50;;
84025;SDS011;74110;45.660;25.582;2024-03-23T02:19:31;14.30;;;7.20;;
84025;SDS011;74110;45.660;25.582;2024-03-23T02:21:59;20.00;;;9.00;;
84025;SDS011;74110;45.660;25.582;2024-03-23T02:24:29;17.30;;;8.80;;
84025;SDS011;74110;45.660;25.582;2024-03-23T02:26:57;18.30;;;8.50;;
84025;SDS011;74110;45.660;25.582;2024-03-23T02:29:25;16.90;;;7.30;;
84025;SDS011;74110;45.660;25.582;2024-03-23T02:31:53;17.80;;;7.10;;
84025;SDS011;74110;45.660;25.582;2024-03-23T02:34:21;21.60;;;9.20;;
84025;SDS011;74110;45.660;25.582;2024-03-23T02:36:50;22.30;;;9.50;;
84025;SDS011;74110;45.660;25.582;2024-03-23T02:39:18;23.30;;;10.40;;
84025;SDS011;74110;45.660;25.582;2024-03-23T02:44:16;18.50;;;7.90;;
84025;SDS011;74110;45.660;25.582;2024-03-23T02:46:44;15.90;;;7.10;;
84025;SDS011;74110;45.660;25.582;2024-03-23T02:49:13;15.60;;;7.60;;
84025;SDS011;74110;45.660;25.582;2024-03-23T02:51:43;18.50;;;7.80;;
84025;SDS011;74110;45.660;25.582;2024-03-23T02:54:13;14.80;;;7.80;;
84025;SDS011;74110;45.660;25.582;2024-03-23T02:56:41;17.20;;;7.80;;
84025;SDS011;74110;45.660;25.582;2024-03-23T02:59:10;16.40;;;7.90;;
84025;SDS011;74110;45.660;25.582;2024-03-23T03:01:37;14.60;;;7.10;;
84025;SDS011;74110;45.660;25.582;2024-03-23T03:04:05;17.00;;;7.70;;
84025;SDS011;74110;45.660;25.582;2024-03-23T03:06:34;16.70;;;7.70;;
84025;SDS011;74110;45.660;25.582;2024-03-23T03:09:02;19.50;;;8.30;;
84025;SDS011;74110;45.660;25.582;2024-03-23T03:11:29;21.50;;;8.80;;
84025;SDS011;74110;45.660;25.582;2024-03-23T03:13:57;18.00;;;7.70;;
84025;SDS011;74110;45.660;25.582;2024-03-23T03:16:27;17.20;;;7.50;;
84025;SDS011;74110;45.660;25.582;2024-03-23T03:18:54;19.70;;;8.50;;
84025;SDS011;74110;45.660;25.582;2024-03-23T03:21:22;15.90;;;7.70;;
84025;SDS011;74110;45.660;25.582;2024-03-23T03:23:50;16.20;;;7.40;;
84025;SDS011;74110;45.660;25.582;2024-03-23T03:26:18;12.40;;;6.70;;
84025;SDS011;74110;45.660;25.582;2024-03-23T03:28:45;19.80;;;7.80;;
84025;SDS011;74110;45.660;25.582;2024-03-23T03:31:16;15.20;;;7.10;;
84025;SDS011;74110;45.660;25.582;2024-03-23T03:33:45;22.40;;;8.50;;
84025;SDS011;74110;45.660;25.582;2024-03-23T03:36:14;21.20;;;8.30;;
84025;SDS011;74110;45.660;25.582;2024-03-23T03:38:43;17.90;;;8.10;;
84025;SDS011;74110;45.660;25.582;2024-03-23T03:41:13;18.60;;;6.50;;
84025;SDS011;74110;45.660;25.582;2024-03-23T03:43:42;20.00;;;9.00;;
84025;SDS011;74110;45.660;25.582;2024-03-23T03:46:10;25.20;;;8.90;;
84025;SDS011;74110;45.660;25.582;2024-03-23T03:48:40;19.70;;;8.60;;
84025;SDS011;74110;45.660;25.582;2024-03-23T03:51:10;14.40;;;7.00;;
84025;SDS011;74110;45.660;25.582;2024-03-23T03:53:39;19.80;;;8.80;;
84025;SDS011;74110;45.660;25.582;2024-03-23T03:56:07;17.30;;;7.80;;
84025;SDS011;74110;45.660;25.582;2024-03-23T03:58:35;18.50;;;8.70;;
84025;SDS011;74110;45.660;25.582;2024-03-23T04:01:03;16.40;;;7.50;;
84025;SDS011;74110;45.660;25.582;2024-03-23T04:03:31;20.40;;;9.20;;
84025;SDS011;74110;45.660;25.582;2024-03-23T04:06:00;17.20;;;8.00;;
84025;SDS011;74110;45.660;25.582;2024-03-23T04:10:56;16.70;;;7.20;;
84025;SDS011;74110;45.660;25.582;2024-03-23T04:13:25;17.00;;;8.90;;
84025;SDS011;74110;45.660;25.582;2024-03-23T04:15:54;21.90;;;8.90;;
84025;SDS011;74110;45.660;25.582;2024-03-23T04:18:24;18.90;;;8.90;;
84025;SDS011;74110;45.660;25.582;2024-03-23T04:20:52;22.30;;;8.90;;
84025;SDS011;74110;45.660;25.582;2024-03-23T04:25:48;19.60;;;8.20;;
84025;SDS011;74110;45.660;25.582;2024-03-23T04:28:16;19.30;;;8.30;;
84025;SDS011;74110;45.660;25.582;2024-03-23T04:30:44;15.80;;;7.30;;
84025;SDS011;74110;45.660;25.582;2024-03-23T04:33:13;16.10;;;6.70;;
84025;SDS011;74110;45.660;25.582;2024-03-23T04:35:42;17.80;;;8.60;;
84025;SDS011;74110;45.660;25.582;2024-03-23T04:38:11;19.40;;;8.40;;
84025;SDS011;74110;45.660;25.582;2024-03-23T04:40:39;21.60;;;9.90;;
84025;SDS011;74110;45.660;25.582;2024-03-23T04:43:08;24.80;;;11.30;;
84025;SDS011;74110;45.660;25.582;2024-03-23T04:45:36;26.50;;;10.90;;
84025;SDS011;74110;45.660;25.582;2024-03-23T04:48:04;21.00;;;10.80;;
84025;SDS011;74110;45.660;25.582;2024-03-23T04:50:32;25.30;;;10.70;;
84025;SDS011;74110;45.660;25.582;2024-03-23T04:53:01;23.00;;;10.20;;
84025;SDS011;74110;45.660;25.582;2024-03-23T04:57:58;23.70;;;10.20;;
84025;SDS011;74110;45.660;25.582;2024-03-23T05:00:27;22.80;;;9.30;;
84025;SDS011;74110;45.660;25.582;2024-03-23T05:02:54;23.90;;;9.50;;
84025;SDS011;74110;45.660;25.582;2024-03-23T05:05:23;17.80;;;8.90;;
84025;SDS011;74110;45.660;25.582;2024-03-23T05:07:51;17.70;;;9.00;;
84025;SDS011;74110;45.660;25.582;2024-03-23T05:10:18;19.60;;;9.70;;
84025;SDS011;74110;45.660;25.582;2024-03-23T05:12:48;18.40;;;8.70;;
84025;SDS011;74110;45.660;25.582;2024-03-23T05:15:16;20.70;;;8.20;;
84025;SDS011;74110;45.660;25.582;2024-03-23T05:17:45;27.10;;;10.40;;
84025;SDS011;74110;45.660;25.582;2024-03-23T05:20:12;20.60;;;10.00;;
84025;SDS011;74110;45.660;25.582;2024-03-23T05:22:40;21.40;;;9.60;;
84025;SDS011;74110;45.660;25.582;2024-03-23T05:25:09;18.80;;;8.90;;
84025;SDS011;74110;45.660;25.582;2024-03-23T05:27:39;19.00;;;8.30;;
84025;SDS011;74110;45.660;25.582;2024-03-23T05:30:09;16.70;;;8.30;;
84025;SDS011;74110;45.660;25.582;2024-03-23T05:32:38;23.80;;;9.00;;
84025;SDS011;74110;45.660;25.582;2024-03-23T05:35:07;21.00;;;9.70;;
84025;SDS011;74110;45.660;25.582;2024-03-23T05:37:36;17.80;;;8.40;;
84025;SDS011;74110;45.660;25.582;2024-03-23T05:40:04;13.90;;;6.90;;
84025;SDS011;74110;45.660;25.582;2024-03-23T05:42:35;18.00;;;9.00;;
84025;SDS011;74110;45.660;25.582;2024-03-23T05:45:03;17.10;;;8.30;;
84025;SDS011;74110;45.660;25.582;2024-03-23T05:47:33;15.40;;;8.40;;
84025;SDS011;74110;45.660;25.582;2024-03-23T05:50:01;19.50;;;9.30;;
84025;SDS011;74110;45.660;25.582;2024-03-23T05:52:30;20.80;;;10.10;;
84025;SDS011;74110;45.660;25.582;2024-03-23T05:54:58;21.90;;;9.80;;
84025;SDS011;74110;45.660;25.582;2024-03-23T05:57:27;19.80;;;8.70;;
84025;SDS011;74110;45.660;25.582;2024-03-23T05:59:55;17.50;;;9.00;;
84025;SDS011;74110;45.660;25.582;2024-03-23T06:02:24;18.80;;;9.90;;
84025;SDS011;74110;45.660;25.582;2024-03-23T06:04:52;25.00;;;11.10;;
84025;SDS011;74110;45.660;25.582;2024-03-23T06:07:19;22.70;;;12.10;;
84025;SDS011;74110;45.660;25.582;2024-03-23T06:09:47;30.80;;;14.00;;
84025;SDS011;74110;45.660;25.582;2024-03-23T06:12:17;26.60;;;13.10;;
84025;SDS011;74110;45.660;25.582;2024-03-23T06:14:44;28.50;;;13.40;;
84025;SDS011;74110;45.660;25.582;2024-03-23T06:17:11;22.70;;;12.20;;
84025;SDS011;74110;45.660;25.582;2024-03-23T06:19:41;22.10;;;11.60;;
84025;SDS011;74110;45.660;25.582;2024-03-23T06:22:08;24.30;;;13.10;;
84025;SDS011;74110;45.660;25.582;2024-03-23T06:24:36;20.40;;;11.20;;
84025;SDS011;74110;45.660;25.582;2024-03-23T06:27:04;21.60;;;10.90;;
84025;SDS011;74110;45.660;25.582;2024-03-23T06:29:32;20.80;;;10.80;;
84025;SDS011;74110;45.660;25.582;2024-03-23T06:32:00;22.70;;;11.90;;
84025;SDS011;74110;45.660;25.582;2024-03-23T06:34:30;17.40;;;9.90;;
84025;SDS011;74110;45.660;25.582;2024-03-23T06:36:59;17.30;;;10.50;;
84025;SDS011;74110;45.660;25.582;2024-03-23T06:41:54;20.60;;;10.10;;
84025;SDS011;74110;45.660;25.582;2024-03-23T06:44:23;17.80;;;9.10;;
84025;SDS011;74110;45.660;25.582;2024-03-23T06:46:52;19.70;;;9.40;;
84025;SDS011;74110;45.660;25.582;2024-03-23T06:49:20;19.30;;;9.60;;
84025;SDS011;74110;45.660;25.582;2024-03-23T06:51:48;17.10;;;9.20;;
84025;SDS011;74110;45.660;25.582;2024-03-23T06:54:20;16.90;;;9.20;;
84025;SDS011;74110;45.660;25.582;2024-03-23T06:56:49;22.40;;;11.00;;
84025;SDS011;74110;45.660;25.582;2024-03-23T06:59:17;18.30;;;10.50;;
84025;SDS011;74110;45.660;25.582;2024-03-23T07:01:45;17.10;;;10.30;;
84025;SDS011;74110;45.660;25.582;2024-03-23T07:04:13;19.00;;;10.20;;
84025;SDS011;74110;45.660;25.582;2024-03-23T07:06:42;19.80;;;10.20;;
84025;SDS011;74110;45.660;25.582;2024-03-23T07:09:11;17.40;;;10.00;;
84025;SDS011;74110;45.660;25.582;2024-03-23T07:11:40;21.00;;;10.20;;
84025;SDS011;74110;45.660;25.582;2024-03-23T07:14:08;17.10;;;9.70;;
84025;SDS011;74110;45.660;25.582;2024-03-23T07:16:37;19.20;;;10.50;;
84025;SDS011;74110;45.660;25.582;2024-03-23T07:19:06;17.90;;;9.90;;
84025;SDS011;74110;45.660;25.582;2024-03-23T07:21:34;18.40;;;9.80;;
84025;SDS011;74110;45.660;25.582;2024-03-23T07:24:01;18.10;;;10.40;;
84025;SDS011;74110;45.660;25.582;2024-03-23T07:26:29;17.90;;;10.70;;
84025;SDS011;74110;45.660;25.582;2024-03-23T07:28:57;17.50;;;10.10;;
84025;SDS011;74110;45.660;25.582;2024-03-23T07:31:24;20.10;;;10.00;;
84025;SDS011;74110;45.660;25.582;2024-03-23T07:33:53;18.60;;;9.90;;
84025;SDS011;74110;45.660;25.582;2024-03-23T07:36:21;23.00;;;10.80;;
84025;SDS011;74110;45.660;25.582;2024-03-23T07:38:50;20.00;;;11.60;;
84025;SDS011;74110;45.660;25.582;2024-03-23T07:41:26;21.70;;;11.10;;
84025;SDS011;74110;45.660;25.582;2024-03-23T07:43:54;18.40;;;10.30;;
84025;SDS011;74110;45.660;25.582;2024-03-23T07:46:22;21.60;;;11.80;;
84025;SDS011;74110;45.660;25.582;2024-03-23T07:48:49;21.00;;;12.10;;
84025;SDS011;74110;45.660;25.582;2024-03-23T07:51:18;22.80;;;11.00;;
84025;SDS011;74110;45.660;25.582;2024-03-23T07:53:48;23.60;;;11.90;;
84025;SDS011;74110;45.660;25.582;2024-03-23T07:56:16;20.70;;;11.60;;
84025;SDS011;74110;45.660;25.582;2024-03-23T07:58:46;23.80;;;11.70;;
84025;SDS011;74110;45.660;25.582;2024-03-23T08:01:15;19.20;;;11.80;;
84025;SDS011;74110;45.660;25.582;2024-03-23T08:03:46;17.80;;;10.80;;
84025;SDS011;74110;45.660;25.582;2024-03-23T08:06:17;20.10;;;11.10;;
84025;SDS011;74110;45.660;25.582;2024-03-23T08:08:48;24.40;;;11.90;;
84025;SDS011;74110;45.660;25.582;2024-03-23T08:11:30;19.90;;;11.70;;
84025;SDS011;74110;45.660;25.582;2024-03-23T08:13:59;21.00;;;11.30;;
84025;SDS011;74110;45.660;25.582;2024-03-23T08:16:29;18.80;;;11.70;;
84025;SDS011;74110;45.660;25.582;2024-03-23T08:18:57;18.00;;;11.50;;
84025;SDS011;74110;45.660;25.582;2024-03-23T08:21:25;19.30;;;11.60;;
84025;SDS011;74110;45.660;25.582;2024-03-23T08:23:54;19.30;;;11.00;;
84025;SDS011;74110;45.660;25.582;2024-03-23T08:26:22;19.00;;;10.90;;
84025;SDS011;74110;45.660;25.582;2024-03-23T08:28:50;17.80;;;9.60;;
84025;SDS011;74110;45.660;25.582;2024-03-23T08:33:46;21.40;;;11.70;;
84025;SDS011;74110;45.660;25.582;2024-03-23T08:36:15;19.70;;;12.50;;
84025;SDS011;74110;45.660;25.582;2024-03-23T08:38:43;18.60;;;11.40;;
84025;SDS011;74110;45.660;25.582;2024-03-23T08:41:11;18.90;;;11.20;;
84025;SDS011;74110;45.660;25.582;2024-03-23T08:43:40;19.70;;;11.30;;
84025;SDS011;74110;45.660;25.582;2024-03-23T08:46:10;18.60;;;11.40;;
84025;SDS011;74110;45.660;25.582;2024-03-23T08:48:40;19.00;;;11.40;;
84025;SDS011;74110;45.660;25.582;2024-03-23T08:51:11;20.80;;;11.10;;
84025;SDS011;74110;45.660;25.582;2024-03-23T08:53:41;20.30;;;11.90;;
84025;SDS011;74110;45.660;25.582;2024-03-23T08:56:10;18.20;;;10.50;;
84025;SDS011;74110;45.660;25.582;2024-03-23T08:58:38;16.40;;;10.20;;
84025;SDS011;74110;45.660;25.582;2024-03-23T09:01:07;18.30;;;10.40;;
84025;SDS011;74110;45.660;25.582;2024-03-23T09:03:37;17.10;;;10.80;;
84025;SDS011;74110;45.660;25.582;2024-03-23T09:06:12;16.90;;;10.70;;
84025;SDS011;74110;45.660;25.582;2024-03-23T09:08:41;15.00;;;9.10;;
84025;SDS011;74110;45.660;25.582;2024-03-23T09:11:10;11.40;;;6.80;;
84025;SDS011;74110;45.660;25.582;2024-03-23T09:13:38;11.60;;;7.20;;
84025;SDS011;74110;45.660;25.582;2024-03-23T09:16:08;12.30;;;7.20;;
84025;SDS011;74110;45.660;25.582;2024-03-23T09:18:36;14.00;;;7.90;;
84025;SDS011;74110;45.660;25.582;2024-03-23T09:21:04;15.10;;;8.20;;
84025;SDS011;74110;45.660;25.582;2024-03-23T09:23:39;10.30;;;7.00;;
84025;SDS011;74110;45.660;25.582;2024-03-23T09:26:07;15.10;;;7.70;;
84025;SDS011;74110;45.660;25.582;2024-03-23T09:28:36;11.70;;;6.70;;
84025;SDS011;74110;45.660;25.582;2024-03-23T09:33:35;11.40;;;7.20;;
84025;SDS011;74110;45.660;25.582;2024-03-23T09:36:04;16.70;;;8.00;;
84025;SDS011;74110;45.660;25.582;2024-03-23T09:38:32;10.20;;;6.50;;
84025;SDS011;74110;45.660;25.582;2024-03-23T09:41:06;11.40;;;7.20;;
84025;SDS011;74110;45.660;25.582;2024-03-23T09:43:35;10.80;;;7.00;;
84025;SDS011;74110;45.660;25.582;2024-03-23T09:46:02;13.70;;;7.60;;
84025;SDS011;74110;45.660;25.582;2024-03-23T09:48:31;12.30;;;7.30;;
84025;SDS011;74110;45.660;25.582;2024-03-23T09:50:59;12.30;;;7.70;;
84025;SDS011;74110;45.660;25.582;2024-03-23T09:53:27;13.30;;;7.60;;
84025;SDS011;74110;45.660;25.582;2024-03-23T09:55:55;12.50;;;7.50;;
84025;SDS011;74110;45.660;25.582;2024-03-23T09:58:23;11.70;;;7.40;;
84025;SDS011;74110;45.660;25.582;2024-03-23T10:00:52;11.90;;;7.30;;
84025;SDS011;74110;45.660;25.582;2024-03-23T10:03:20;12.30;;;7.90;;
84025;SDS011;74110;45.660;25.582;2024-03-23T10:05:48;12.30;;;7.60;;
84025;SDS011;74110;45.660;25.582;2024-03-23T10:08:28;14.60;;;8.80;;
84025;SDS011;74110;45.660;25.582;2024-03-23T10:10:58;13.30;;;7.60;;
84025;SDS011;74110;45.660;25.582;2024-03-23T10:13:43;15.10;;;8.10;;
84025;SDS011;74110;45.660;25.582;2024-03-23T10:16:11;15.00;;;8.00;;
84025;SDS011;74110;45.660;25.582;2024-03-23T10:18:39;12.00;;;7.70;;
84025;SDS011;74110;45.660;25.582;2024-03-23T10:21:08;13.80;;;7.20;;
84025;SDS011;74110;45.660;25.582;2024-03-23T10:23:39;13.80;;;8.40;;
84025;SDS011;74110;45.660;25.582;2024-03-23T10:26:12;13.50;;;7.70;;
84025;SDS011;74110;45.660;25.582;2024-03-23T10:28:57;10.80;;;6.70;;
84025;SDS011;74110;45.660;25.582;2024-03-23T10:31:36;9.80;;;6.50;;
84025;SDS011;74110;45.660;25.582;2024-03-23T10:36:32;11.20;;;6.60;;
84025;SDS011;74110;45.660;25.582;2024-03-23T10:39:02;10.80;;;6.50;;
84025;SDS011;74110;45.660;25.582;2024-03-23T10:41:33;11.30;;;6.90;;
84025;SDS011;74110;45.660;25.582;2024-03-23T10:44:01;8.80;;;6.00;;
84025;SDS011;74110;45.660;25.582;2024-03-23T10:46:30;10.40;;;6.60;;
84025;SDS011;74110;45.660;25.582;2024-03-23T10:48:58;10.60;;;6.10;;
84025;SDS011;74110;45.660;25.582;2024-03-23T10:51:26;17.10;;;6.10;;
84025;SDS011;74110;45.660;25.582;2024-03-23T10:53:55;7.60;;;4.90;;
84025;SDS011;74110;45.660;25.582;2024-03-23T10:56:24;16.10;;;6.60;;
84025;SDS011;74110;45.660;25.582;2024-03-23T10:58:56;8.40;;;5.10;;
84025;SDS011;74110;45.660;25.582;2024-03-23T11:01:24;9.80;;;6.30;;
84025;SDS011;74110;45.660;25.582;2024-03-23T11:03:54;10.40;;;5.90;;
84025;SDS011;74110;45.660;25.582;2024-03-23T11:06:38;7.30;;;4.70;;
84025;SDS011;74110;45.660;25.582;2024-03-23T11:12:26;8.50;;;5.00;;
84025;SDS011;74110;45.660;25.582;2024-03-23T11:17:27;8.40;;;5.10;;
84025;SDS011;74110;45.660;25.582;2024-03-23T11:19:58;8.10;;;4.90;;
84025;SDS011;74110;45.660;25.582;2024-03-23T11:22:46;5.00;;;3.20;;
84025;SDS011;74110;45.660;25.582;2024-03-23T11:25:20;8.90;;;5.40;;
84025;SDS011;74110;45.660;25.582;2024-03-23T11:27:52;8.50;;;4.30;;
84025;SDS011;74110;45.660;25.582;2024-03-23T11:30:26;8.30;;;4.30;;
84025;SDS011;74110;45.660;25.582;2024-03-23T11:32:57;11.00;;;6.10;;
84025;SDS011;74110;45.660;25.582;2024-03-23T11:35:34;9.10;;;5.20;;
84025;SDS011;74110;45.660;25.582;2024-03-23T11:38:13;8.00;;;4.10;;
84025;SDS011;74110;45.660;25.582;2024-03-23T11:40:44;8.80;;;5.20;;
84025;SDS011;74110;45.660;25.582;2024-03-23T11:43:17;8.90;;;5.30;;
84025;SDS011;74110;45.660;25.582;2024-03-23T11:45:47;8.40;;;4.70;;
84025;SDS011;74110;45.660;25.582;2024-03-23T11:48:19;8.90;;;4.70;;
84025;SDS011;74110;45.660;25.582;2024-03-23T11:50:51;9.20;;;6.20;;
84025;SDS011;74110;45.660;25.582;2024-03-23T11:53:25;7.70;;;4.20;;
84025;SDS011;74110;45.660;25.582;2024-03-23T11:55:58;10.10;;;5.70;;
84025;SDS011;74110;45.660;25.582;2024-03-23T11:58:27;9.50;;;5.60;;
84025;SDS011;74110;45.660;25.582;2024-03-23T12:00:59;10.00;;;5.80;;
84025;SDS011;74110;45.660;25.582;2024-03-23T12:03:31;10.00;;;5.70;;
84025;SDS011;74110;45.660;25.582;2024-03-23T12:06:02;7.60;;;4.70;;
84025;SDS011;74110;45.660;25.582;2024-03-23T12:08:36;12.20;;;5.80;;
84025;SDS011;74110;45.660;25.582;2024-03-23T12:11:11;8.00;;;4.70;;
84025;SDS011;74110;45.660;25.582;2024-03-23T12:13:42;9.80;;;5.90;;
84025;SDS011;74110;45.660;25.582;2024-03-23T12:16:14;10.60;;;5.50;;
84025;SDS011;74110;45.660;25.582;2024-03-23T12:18:42;9.30;;;5.10;;
84025;SDS011;74110;45.660;25.582;2024-03-23T12:21:13;8.90;;;5.30;;
84025;SDS011;74110;45.660;25.582;2024-03-23T12:23:40;8.70;;;4.90;;
84025;SDS011;74110;45.660;25.582;2024-03-23T12:26:11;8.30;;;5.50;;
84025;SDS011;74110;45.660;25.582;2024-03-23T12:28:39;9.50;;;5.20;;
84025;SDS011;74110;45.660;25.582;2024-03-23T12:31:07;7.10;;;5.20;;
84025;SDS011;74110;45.660;25.582;2024-03-23T12:33:35;8.00;;;5.10;;
84025;SDS011;74110;45.660;25.582;2024-03-23T12:36:03;7.40;;;4.20;;
84025;SDS011;74110;45.660;25.582;2024-03-23T12:38:32;8.60;;;5.60;;
84025;SDS011;74110;45.660;25.582;2024-03-23T12:41:00;7.00;;;4.60;;
84025;SDS011;74110;45.660;25.582;2024-03-23T12:43:28;8.60;;;5.70;;
84025;SDS011;74110;45.660;25.582;2024-03-23T12:45:56;14.90;;;7.00;;
84025;SDS011;74110;45.660;25.582;2024-03-23T12:50:55;7.20;;;4.40;;
84025;SDS011;74110;45.660;25.582;2024-03-23T12:53:22;7.90;;;5.30;;
84025;SDS011;74110;45.660;25.582;2024-03-23T12:55:50;8.40;;;4.80;;
84025;SDS011;74110;45.660;25.582;2024-03-23T12:58:17;8.10;;;5.70;;
84025;SDS011;74110;45.660;25.582;2024-03-23T13:03:13;8.20;;;4.50;;
84025;SDS011;74110;45.660;25.582;2024-03-23T13:05:43;7.50;;;4.80;;
84025;SDS011;74110;45.660;25.582;2024-03-23T13:08:18;8.20;;;5.00;;
84025;SDS011;74110;45.660;25.582;2024-03-23T13:10:51;7.60;;;4.80;;
84025;SDS011;74110;45.660;25.582;2024-03-23T13:13:20;7.90;;;4.70;;
84025;SDS011;74110;45.660;25.582;2024-03-23T13:15:51;8.50;;;5.00;;
84025;SDS011;74110;45.660;25.582;2024-03-23T13:18:18;8.50;;;4.70;;
84025;SDS011;74110;45.660;25.582;2024-03-23T13:20:47;7.40;;;4.20;;
84025;SDS011;74110;45.660;25.582;2024-03-23T13:23:15;8.40;;;5.40;;
84025;SDS011;74110;45.660;25.582;2024-03-23T13:25:50;7.90;;;5.10;;
84025;SDS011;74110;45.660;25.582;2024-03-23T13:28:24;17.90;;;9.40;;
84025;SDS011;74110;45.660;25.582;2024-03-23T13:30:53;8.70;;;5.10;;
84025;SDS011;74110;45.660;25.582;2024-03-23T13:33:22;7.20;;;4.20;;
84025;SDS011;74110;45.660;25.582;2024-03-23T13:35:50;9.00;;;6.00;;
84025;SDS011;74110;45.660;25.582;2024-03-23T13:38:23;7.70;;;5.50;;
84025;SDS011;74110;45.660;25.582;2024-03-23T13:43:27;8.20;;;5.50;;
84025;SDS011;74110;45.660;25.582;2024-03-23T13:45:57;12.20;;;5.20;;
84025;SDS011;74110;45.660;25.582;2024-03-23T13:48:27;7.50;;;4.80;;
84025;SDS011;74110;45.660;25.582;2024-03-23T13:51:00;7.40;;;4.90;;
84025;SDS011;74110;45.660;25.582;2024-03-23T13:53:39;7.90;;;4.90;;
84025;SDS011;74110;45.660;25.582;2024-03-23T13:56:06;6.20;;;3.90;;
84025;SDS011;74110;45.660;25.582;2024-03-23T13:58:33;5.70;;;4.00;;
84025;SDS011;74110;45.660;25.582;2024-03-23T14:01:02;10.40;;;6.20;;
84025;SDS011;74110;45.660;25.582;2024-03-23T14:03:30;6.20;;;4.40;;
84025;SDS011;74110;45.660;25.582;2024-03-23T14:05:58;7.00;;;4.30;;
84025;SDS011;74110;45.660;25.582;2024-03-23T14:08:28;7.80;;;4.90;;
84025;SDS011;74110;45.660;25.582;2024-03-23T14:10:59;8.60;;;4.80;;
84025;SDS011;74110;45.660;25.582;2024-03-23T14:13:27;7.20;;;5.10;;
84025;SDS011;74110;45.660;25.582;2024-03-23T14:15:55;28.40;;;15.70;;
84025;SDS011;74110;45.660;25.582;2024-03-23T14:18:23;11.10;;;7.50;;
84025;SDS011;74110;45.660;25.582;2024-03-23T14:20:55;11.70;;;7.10;;
84025;SDS011;74110;45.660;25.582;2024-03-23T14:23:29;10.80;;;6.80;;
84025;SDS011;74110;45.660;25.582;2024-03-23T14:25:59;7.90;;;4.70;;
84025;SDS011;74110;45.660;25.582;2024-03-23T14:28:27;9.20;;;6.50;;
84025;SDS011;74110;45.660;25.582;2024-03-23T14:30:55;7.50;;;4.50;;
84025;SDS011;74110;45.660;25.582;2024-03-23T14:33:23;6.90;;;4.50;;
84025;SDS011;74110;45.660;25.582;2024-03-23T14:35:52;8.00;;;5.40;;
84025;SDS011;74110;45.660;25.582;2024-03-23T14:38:27;7.10;;;4.70;;
84025;SDS011;74110;45.660;25.582;2024-03-23T14:40:58;6.00;;;3.60;;
84025;SDS011;74110;45.660;25.582;2024-03-23T14:43:28;9.20;;;5.00;;
84025;SDS011;74110;45.660;25.582;2024-03-23T14:46:10;6.60;;;4.50;;
84025;SDS011;74110;45.660;25.582;2024-03-23T14:49:00;8.60;;;5.30;;
84025;SDS011;74110;45.660;25.582;2024-03-23T14:51:28;6.50;;;4.30;;
84025;SDS011;74110;45.660;25.582;2024-03-23T14:53:56;8.50;;;4.90;;
84025;SDS011;74110;45.660;25.582;2024-03-23T14:56:24;8.50;;;4.70;;
84025;SDS011;74110;45.660;25.582;2024-03-23T14:58:52;6.20;;;4.80;;
84025;SDS011;74110;45.660;25.582;2024-03-23T15:01:20;7.70;;;4.70;;
84025;SDS011;74110;45.660;25.582;2024-03-23T15:03:48;5.60;;;4.60;;
84025;SDS011;74110;45.660;25.582;2024-03-23T15:06:19;8.00;;;6.20;;
84025;SDS011;74110;45.660;25.582;2024-03-23T15:08:48;7.40;;;5.40;;
84025;SDS011;74110;45.660;25.582;2024-03-23T15:11:16;8.80;;;5.10;;
84025;SDS011;74110;45.660;25.582;2024-03-23T15:13:49;11.00;;;8.50;;
84025;SDS011;74110;45.660;25.582;2024-03-23T15:16:17;7.40;;;5.20;;
84025;SDS011;74110;45.660;25.582;2024-03-23T15:18:54;10.40;;;5.00;;
84025;SDS011;74110;45.660;25.582;2024-03-23T15:21:22;7.50;;;5.30;;
84025;SDS011;74110;45.660;25.582;2024-03-23T15:26:17;19.50;;;12.70;;
84025;SDS011;74110;45.660;25.582;2024-03-23T15:28:48;16.20;;;10.90;;
84025;SDS011;74110;45.660;25.582;2024-03-23T15:31:45;10.90;;;7.90;;
84025;SDS011;74110;45.660;25.582;2024-03-23T15:34:14;7.30;;;6.10;;
84025;SDS011;74110;45.660;25.582;2024-03-23T15:36:41;7.90;;;5.40;;
84025;SDS011;74110;45.660;25.582;2024-03-23T15:39:12;12.30;;;6.80;;
84025;SDS011;74110;45.660;25.582;2024-03-23T15:41:43;7.60;;;5.20;;
84025;SDS011;74110;45.660;25.582;2024-03-23T15:44:11;7.40;;;5.50;;
84025;SDS011;74110;45.660;25.582;2024-03-23T15:46:39;9.00;;;5.70;;
84025;SDS011;74110;45.660;25.582;2024-03-23T15:51:34;14.80;;;8.30;;
84025;SDS011;74110;45.660;25.582;2024-03-23T15:54:04;10.90;;;6.90;;
84025;SDS011;74110;45.660;25.582;2024-03-23T15:56:33;11.20;;;6.60;;
84025;SDS011;74110;45.660;25.582;2024-03-23T15:59:01;10.50;;;6.90;;
84025;SDS011;74110;45.660;25.582;2024-03-23T16:01:35;9.10;;;6.60;;
84025;SDS011;74110;45.660;25.582;2024-03-23T16:04:02;11.00;;;7.10;;
84025;SDS011;74110;45.660;25.582;2024-03-23T16:06:30;9.50;;;6.80;;
84025;SDS011;74110;45.660;25.582;2024-03-23T16:08:58;9.10;;;6.00;;
84025;SDS011;74110;45.660;25.582;2024-03-23T16:11:27;8.80;;;5.80;;